sensor_id;sensor_type;location;lat;lon;timestamp;pressure;altitude;pressure_sealevel;temperature;humidity
62946;BME280;52164;52.212;-1.010;2023-02-16T00:00:28;101176.51;;;6.29;83.56
62946;BME280;52164;52.212;-1.010;2023-02-16T00:02:54;101177.74;;;6.29;83.28
62946;BME280;52164;52.212;-1.010;2023-02-16T00:05:25;101175.80;;;6.29;83.30
62946;BME280;52164;52.212;-1.010;2023-02-16T00:07:51;101174.19;;;6.28;83.30
62946;BME280;52164;52.212;-1.010;2023-02-16T00:10:17;101173.29;;;6.28;83.12
62946;BME280;52164;52.212;-1.010;2023-02-16T00:12:42;101176.83;;;6.27;83.05
62946;BME280;52164;52.212;-1.010;2023-02-16T00:15:27;101171.55;;;6.29;82.94
62946;BME280;52164;52.212;-1.010;2023-02-16T00:17:53;101175.69;;;6.32;83.02
62946;BME280;52164;52.212;-1.010;2023-02-16T00:20:19;101179.87;;;6.35;83.18
62946;BME280;52164;52.212;-1.010;2023-02-16T00:22:45;101179.42;;;6.39;83.27
62946;BME280;52164;52.212;-1.010;2023-02-16T00:25:10;101177.75;;;6.42;83.06
62946;BME280;52164;52.212;-1.010;2023-02-16T00:27:36;101179.60;;;6.45;83.01
62946;BME280;52164;52.212;-1.010;2023-02-16T00:30:02;101171.29;;;6.46;83.02
62946;BME280;52164;52.212;-1.010;2023-02-16T00:32:27;101170.80;;;6.47;83.28
62946;BME280;52164;52.212;-1.010;2023-02-16T00:34:53;101168.16;;;6.48;83.07
62946;BME280;52164;52.212;-1.010;2023-02-16T00:37:18;101166.00;;;6.47;82.84
62946;BME280;52164;52.212;-1.010;2023-02-16T00:39:44;101164.58;;;6.46;82.79
62946;BME280;52164;52.212;-1.010;2023-02-16T00:44:37;101164.13;;;6.43;82.63
62946;BME280;52164;52.212;-1.010;2023-02-16T00:47:20;101163.73;;;6.42;82.52
62946;BME280;52164;52.212;-1.010;2023-02-16T00:49:46;101159.13;;;6.42;82.92
62946;BME280;52164;52.212;-1.010;2023-02-16T00:52:43;101160.00;;;6.41;82.68
62946;BME280;52164;52.212;-1.010;2023-02-16T00:54:57;101154.70;;;6.42;82.81
62946;BME280;52164;52.212;-1.010;2023-02-16T00:57:23;101152.27;;;6.43;82.96
62946;BME280;52164;52.212;-1.010;2023-02-16T00:59:51;101150.67;;;6.44;82.90
62946;BME280;52164;52.212;-1.010;2023-02-16T01:02:20;101151.95;;;6.45;82.94
62946;BME280;52164;52.212;-1.010;2023-02-16T01:04:46;101153.57;;;6.46;82.97
62946;BME280;52164;52.212;-1.010;2023-02-16T01:07:14;101157.16;;;6.48;82.98
62946;BME280;52164;52.212;-1.010;2023-02-16T01:10:00;101153.42;;;6.47;82.81
62946;BME280;52164;52.212;-1.010;2023-02-16T01:12:45;101151.26;;;6.46;82.67
62946;BME280;52164;52.212;-1.010;2023-02-16T01:15:11;101149.10;;;6.45;82.75
62946;BME280;52164;52.212;-1.010;2023-02-16T01:17:37;101142.69;;;6.43;82.70
62946;BME280;52164;52.212;-1.010;2023-02-16T01:20:03;101138.55;;;6.41;82.82
62946;BME280;52164;52.212;-1.010;2023-02-16T01:22:28;101136.20;;;6.40;82.73
62946;BME280;52164;52.212;-1.010;2023-02-16T01:24:57;101131.71;;;6.38;82.74
62946;BME280;52164;52.212;-1.010;2023-02-16T01:27:22;101129.55;;;6.37;82.57
62946;BME280;52164;52.212;-1.010;2023-02-16T01:29:48;101129.20;;;6.37;82.65
62946;BME280;52164;52.212;-1.010;2023-02-16T01:32:13;101131.85;;;6.36;82.72
62946;BME280;52164;52.212;-1.010;2023-02-16T01:34:38;101135.55;;;6.35;82.60
62946;BME280;52164;52.212;-1.010;2023-02-16T01:37:09;101135.92;;;6.37;82.85
62946;BME280;52164;52.212;-1.010;2023-02-16T01:39:36;101141.25;;;6.37;82.71
62946;BME280;52164;52.212;-1.010;2023-02-16T01:42:05;101139.55;;;6.39;83.18
62946;BME280;52164;52.212;-1.010;2023-02-16T01:44:37;101132.52;;;6.41;82.78
62946;BME280;52164;52.212;-1.010;2023-02-16T01:47:10;101131.52;;;6.44;83.15
62946;BME280;52164;52.212;-1.010;2023-02-16T01:49:37;101125.92;;;6.46;83.22
62946;BME280;52164;52.212;-1.010;2023-02-16T01:54:38;101132.63;;;6.52;82.90
62946;BME280;52164;52.212;-1.010;2023-02-16T01:59:20;101133.05;;;6.55;83.12
62946;BME280;52164;52.212;-1.010;2023-02-16T02:02:22;101131.47;;;6.56;82.93
62946;BME280;52164;52.212;-1.010;2023-02-16T02:04:50;101127.92;;;6.55;82.63
62946;BME280;52164;52.212;-1.010;2023-02-16T02:10:09;101122.67;;;6.51;82.82
62946;BME280;52164;52.212;-1.010;2023-02-16T02:14:47;101120.13;;;6.49;82.93
62946;BME280;52164;52.212;-1.010;2023-02-16T02:15:24;101107.16;;;6.48;83.00
62946;BME280;52164;52.212;-1.010;2023-02-16T02:17:52;101103.45;;;6.48;82.66
62946;BME280;52164;52.212;-1.010;2023-02-16T02:23:04;101089.62;;;6.49;82.88
62946;BME280;52164;52.212;-1.010;2023-02-16T02:28:14;101086.25;;;6.49;83.06
62946;BME280;52164;52.212;-1.010;2023-02-16T02:29:06;101080.25;;;6.50;82.89
62946;BME280;52164;52.212;-1.010;2023-02-16T02:31:25;101078.30;;;6.49;82.96
62946;BME280;52164;52.212;-1.010;2023-02-16T02:34:09;101075.10;;;6.49;82.88
62946;BME280;52164;52.212;-1.010;2023-02-16T02:36:38;101073.15;;;6.49;82.95
62946;BME280;52164;52.212;-1.010;2023-02-16T02:41:41;101056.33;;;6.50;82.63
62946;BME280;52164;52.212;-1.010;2023-02-16T02:44:28;101053.63;;;6.49;82.75
62946;BME280;52164;52.212;-1.010;2023-02-16T02:46:53;101047.73;;;6.47;82.62
62946;BME280;52164;52.212;-1.010;2023-02-16T02:49:19;101047.02;;;6.47;82.72
62946;BME280;52164;52.212;-1.010;2023-02-16T02:51:44;101041.16;;;6.47;83.13
62946;BME280;52164;52.212;-1.010;2023-02-16T02:54:15;101038.17;;;6.48;82.73
62946;BME280;52164;52.212;-1.010;2023-02-16T02:57:03;101035.98;;;6.46;82.73
62946;BME280;52164;52.212;-1.010;2023-02-16T03:00:08;101033.84;;;6.45;82.71
62946;BME280;52164;52.212;-1.010;2023-02-16T03:02:57;101021.73;;;6.43;82.70
62946;BME280;52164;52.212;-1.010;2023-02-16T03:05:23;101015.48;;;6.41;82.74
62946;BME280;52164;52.212;-1.010;2023-02-16T03:07:51;101012.98;;;6.39;82.76
62946;BME280;52164;52.212;-1.010;2023-02-16T03:10:23;101012.20;;;6.38;82.47
62946;BME280;52164;52.212;-1.010;2023-02-16T03:13:12;101009.14;;;6.35;82.64
62946;BME280;52164;52.212;-1.010;2023-02-16T03:15:39;101006.81;;;6.34;82.70
62946;BME280;52164;52.212;-1.010;2023-02-16T03:18:06;101002.36;;;6.34;82.49
62946;BME280;52164;52.212;-1.010;2023-02-16T03:20:53;100999.34;;;6.33;82.44
62946;BME280;52164;52.212;-1.010;2023-02-16T03:23:39;100986.23;;;6.34;82.30
62946;BME280;52164;52.212;-1.010;2023-02-16T03:26:25;100988.23;;;6.36;82.58
62946;BME280;52164;52.212;-1.010;2023-02-16T03:29:11;100983.30;;;6.38;82.74
62946;BME280;52164;52.212;-1.010;2023-02-16T03:31:46;100977.52;;;6.40;82.68
62946;BME280;52164;52.212;-1.010;2023-02-16T03:34:15;100971.58;;;6.43;82.58
62946;BME280;52164;52.212;-1.010;2023-02-16T03:36:42;100973.63;;;6.47;82.56
62946;BME280;52164;52.212;-1.010;2023-02-16T03:39:10;100968.20;;;6.50;82.79
62946;BME280;52164;52.212;-1.010;2023-02-16T03:41:39;100963.86;;;6.55;82.54
62946;BME280;52164;52.212;-1.010;2023-02-16T03:44:06;100957.38;;;6.58;82.35
62946;BME280;52164;52.212;-1.010;2023-02-16T03:46:31;100950.50;;;6.60;82.40
62946;BME280;52164;52.212;-1.010;2023-02-16T03:48:57;100948.41;;;6.61;82.38
62946;BME280;52164;52.212;-1.010;2023-02-16T03:51:22;100941.17;;;6.63;82.38
62946;BME280;52164;52.212;-1.010;2023-02-16T03:53:47;100933.74;;;6.64;81.99
62946;BME280;52164;52.212;-1.010;2023-02-16T03:56:14;100929.66;;;6.63;82.09
62946;BME280;52164;52.212;-1.010;2023-02-16T03:58:39;100931.77;;;6.63;82.04
62946;BME280;52164;52.212;-1.010;2023-02-16T04:01:04;100934.76;;;6.62;81.92
62946;BME280;52164;52.212;-1.010;2023-02-16T04:03:30;100940.77;;;6.61;82.14
62946;BME280;52164;52.212;-1.010;2023-02-16T04:05:55;100938.81;;;6.61;81.94
62946;BME280;52164;52.212;-1.010;2023-02-16T04:08:21;100937.71;;;6.59;81.76
62946;BME280;52164;52.212;-1.010;2023-02-16T04:10:46;100938.19;;;6.57;81.70
62946;BME280;52164;52.212;-1.010;2023-02-16T04:13:12;100941.52;;;6.55;81.54
62946;BME280;52164;52.212;-1.010;2023-02-16T04:15:37;100937.98;;;6.55;81.67
62946;BME280;52164;52.212;-1.010;2023-02-16T04:18:02;100937.10;;;6.56;81.30
62946;BME280;52164;52.212;-1.010;2023-02-16T04:20:29;100931.81;;;6.57;81.60
62946;BME280;52164;52.212;-1.010;2023-02-16T04:22:55;100931.67;;;6.59;81.55
62946;BME280;52164;52.212;-1.010;2023-02-16T04:25:21;100928.89;;;6.61;81.57
62946;BME280;52164;52.212;-1.010;2023-02-16T04:27:46;100937.47;;;6.64;81.80
62946;BME280;52164;52.212;-1.010;2023-02-16T04:30:13;100935.41;;;6.66;81.74
62946;BME280;52164;52.212;-1.010;2023-02-16T04:32:39;100928.19;;;6.69;81.41
62946;BME280;52164;52.212;-1.010;2023-02-16T04:35:05;100922.89;;;6.70;81.49
62946;BME280;52164;52.212;-1.010;2023-02-16T04:37:31;100927.92;;;6.73;81.31
62946;BME280;52164;52.212;-1.010;2023-02-16T04:39:56;100924.54;;;6.73;81.54
62946;BME280;52164;52.212;-1.010;2023-02-16T04:42:21;100918.33;;;6.72;81.26
62946;BME280;52164;52.212;-1.010;2023-02-16T04:44:47;100915.79;;;6.70;81.10
62946;BME280;52164;52.212;-1.010;2023-02-16T04:47:12;100914.70;;;6.69;81.13
62946;BME280;52164;52.212;-1.010;2023-02-16T04:49:38;100919.64;;;6.67;81.35
62946;BME280;52164;52.212;-1.010;2023-02-16T04:52:03;100930.95;;;6.66;81.20
62946;BME280;52164;52.212;-1.010;2023-02-16T04:54:29;100920.80;;;6.64;81.32
62946;BME280;52164;52.212;-1.010;2023-02-16T04:56:55;100912.82;;;6.64;81.26
62946;BME280;52164;52.212;-1.010;2023-02-16T04:59:20;100909.42;;;6.62;81.16
62946;BME280;52164;52.212;-1.010;2023-02-16T05:01:45;100903.91;;;6.61;81.30
62946;BME280;52164;52.212;-1.010;2023-02-16T05:04:11;100894.67;;;6.61;81.47
62946;BME280;52164;52.212;-1.010;2023-02-16T05:06:36;100891.32;;;6.62;81.33
62946;BME280;52164;52.212;-1.010;2023-02-16T05:09:03;100897.23;;;6.64;81.52
62946;BME280;52164;52.212;-1.010;2023-02-16T05:11:28;100899.59;;;6.67;81.75
62946;BME280;52164;52.212;-1.010;2023-02-16T05:14:18;100897.36;;;6.70;81.57
62946;BME280;52164;52.212;-1.010;2023-02-16T05:17:04;100899.56;;;6.74;81.48
62946;BME280;52164;52.212;-1.010;2023-02-16T05:19:29;100896.78;;;6.76;81.94
62946;BME280;52164;52.212;-1.010;2023-02-16T05:21:55;100892.58;;;6.79;81.72
62946;BME280;52164;52.212;-1.010;2023-02-16T05:24:20;100893.11;;;6.80;82.03
62946;BME280;52164;52.212;-1.010;2023-02-16T05:26:45;100892.77;;;6.80;81.73
62946;BME280;52164;52.212;-1.010;2023-02-16T05:29:11;100884.96;;;6.80;82.17
62946;BME280;52164;52.212;-1.010;2023-02-16T05:31:36;100877.52;;;6.80;82.04
62946;BME280;52164;52.212;-1.010;2023-02-16T05:34:01;100867.08;;;6.80;82.19
62946;BME280;52164;52.212;-1.010;2023-02-16T05:36:26;100854.27;;;6.79;81.76
62946;BME280;52164;52.212;-1.010;2023-02-16T05:38:52;100855.30;;;6.78;81.80
62946;BME280;52164;52.212;-1.010;2023-02-16T05:41:21;100855.95;;;6.76;82.17
62946;BME280;52164;52.212;-1.010;2023-02-16T05:43:48;100858.91;;;6.73;82.07
62946;BME280;52164;52.212;-1.010;2023-02-16T05:46:13;100854.08;;;6.70;82.10
62946;BME280;52164;52.212;-1.010;2023-02-16T05:48:38;100852.26;;;6.68;82.27
62946;BME280;52164;52.212;-1.010;2023-02-16T05:51:04;100849.73;;;6.66;82.16
62946;BME280;52164;52.212;-1.010;2023-02-16T05:53:29;100848.83;;;6.65;82.36
62946;BME280;52164;52.212;-1.010;2023-02-16T05:55:54;100844.39;;;6.65;82.18
62946;BME280;52164;52.212;-1.010;2023-02-16T05:58:19;100842.13;;;6.67;82.35
62946;BME280;52164;52.212;-1.010;2023-02-16T06:00:45;100842.34;;;6.68;82.40
62946;BME280;52164;52.212;-1.010;2023-02-16T06:03:10;100846.84;;;6.72;82.51
62946;BME280;52164;52.212;-1.010;2023-02-16T06:05:36;100852.94;;;6.75;82.54
62946;BME280;52164;52.212;-1.010;2023-02-16T06:08:01;100848.59;;;6.79;82.92
62946;BME280;52164;52.212;-1.010;2023-02-16T06:10:27;100854.86;;;6.83;82.67
62946;BME280;52164;52.212;-1.010;2023-02-16T06:12:52;100853.51;;;6.85;82.86
62946;BME280;52164;52.212;-1.010;2023-02-16T06:15:17;100843.09;;;6.88;83.00
62946;BME280;52164;52.212;-1.010;2023-02-16T06:17:42;100845.30;;;6.93;83.26
62946;BME280;52164;52.212;-1.010;2023-02-16T06:20:08;100846.27;;;6.96;83.12
62946;BME280;52164;52.212;-1.010;2023-02-16T06:22:34;100848.30;;;7.00;83.27
62946;BME280;52164;52.212;-1.010;2023-02-16T06:24:59;100843.21;;;7.03;83.25
62946;BME280;52164;52.212;-1.010;2023-02-16T06:27:24;100839.67;;;7.04;83.03
62946;BME280;52164;52.212;-1.010;2023-02-16T06:29:52;100841.63;;;7.04;82.95
62946;BME280;52164;52.212;-1.010;2023-02-16T06:32:17;100840.89;;;7.02;83.31
62946;BME280;52164;52.212;-1.010;2023-02-16T06:34:43;100838.73;;;7.01;83.24
62946;BME280;52164;52.212;-1.010;2023-02-16T06:37:08;100835.87;;;7.00;83.27
62946;BME280;52164;52.212;-1.010;2023-02-16T06:39:34;100839.94;;;6.99;83.49
62946;BME280;52164;52.212;-1.010;2023-02-16T06:41:59;100840.11;;;6.99;83.57
62946;BME280;52164;52.212;-1.010;2023-02-16T06:44:24;100839.02;;;6.98;83.65
62946;BME280;52164;52.212;-1.010;2023-02-16T06:46:49;100837.60;;;6.98;83.61
62946;BME280;52164;52.212;-1.010;2023-02-16T06:49:16;100829.61;;;6.97;83.67
62946;BME280;52164;52.212;-1.010;2023-02-16T06:51:42;100826.40;;;6.96;83.92
62946;BME280;52164;52.212;-1.010;2023-02-16T06:54:08;100825.34;;;6.97;83.62
62946;BME280;52164;52.212;-1.010;2023-02-16T06:56:33;100824.64;;;6.98;84.21
62946;BME280;52164;52.212;-1.010;2023-02-16T06:58:59;100823.07;;;6.98;84.03
62946;BME280;52164;52.212;-1.010;2023-02-16T07:01:24;100818.84;;;6.99;84.20
62946;BME280;52164;52.212;-1.010;2023-02-16T07:03:50;100821.67;;;7.01;84.16
62946;BME280;52164;52.212;-1.010;2023-02-16T07:06:16;100812.65;;;7.02;84.00
62946;BME280;52164;52.212;-1.010;2023-02-16T07:08:41;100812.69;;;7.03;84.26
62946;BME280;52164;52.212;-1.010;2023-02-16T07:11:08;100813.08;;;7.05;84.18
62946;BME280;52164;52.212;-1.010;2023-02-16T07:13:33;100814.85;;;7.05;84.24
62946;BME280;52164;52.212;-1.010;2023-02-16T07:16:01;100820.73;;;7.06;84.40
62946;BME280;52164;52.212;-1.010;2023-02-16T07:18:26;100822.16;;;7.07;84.58
62946;BME280;52164;52.212;-1.010;2023-02-16T07:20:52;100828.22;;;7.08;84.51
62946;BME280;52164;52.212;-1.010;2023-02-16T07:23:17;100826.31;;;7.10;84.39
62946;BME280;52164;52.212;-1.010;2023-02-16T07:25:42;100829.02;;;7.13;84.48
62946;BME280;52164;52.212;-1.010;2023-02-16T07:28:08;100832.27;;;7.15;84.48
62946;BME280;52164;52.212;-1.010;2023-02-16T07:30:34;100831.95;;;7.18;84.60
62946;BME280;52164;52.212;-1.010;2023-02-16T07:32:59;100840.04;;;7.22;84.92
62946;BME280;52164;52.212;-1.010;2023-02-16T07:35:24;100845.06;;;7.26;84.58
62946;BME280;52164;52.212;-1.010;2023-02-16T07:37:50;100842.66;;;7.31;84.64
62946;BME280;52164;52.212;-1.010;2023-02-16T07:40:15;100844.16;;;7.35;84.56
62946;BME280;52164;52.212;-1.010;2023-02-16T07:42:41;100847.09;;;7.39;84.34
62946;BME280;52164;52.212;-1.010;2023-02-16T07:45:06;100841.84;;;7.44;84.22
62946;BME280;52164;52.212;-1.010;2023-02-16T07:47:31;100839.20;;;7.46;84.08
62946;BME280;52164;52.212;-1.010;2023-02-16T07:49:57;100840.35;;;7.50;84.22
62946;BME280;52164;52.212;-1.010;2023-02-16T07:52:22;100840.38;;;7.51;84.54
62946;BME280;52164;52.212;-1.010;2023-02-16T07:54:49;100846.81;;;7.53;84.44
62946;BME280;52164;52.212;-1.010;2023-02-16T07:57:15;100846.52;;;7.57;84.45
62946;BME280;52164;52.212;-1.010;2023-02-16T07:59:40;100838.21;;;7.60;84.80
62946;BME280;52164;52.212;-1.010;2023-02-16T08:02:06;100832.91;;;7.62;84.55
62946;BME280;52164;52.212;-1.010;2023-02-16T08:04:31;100830.29;;;7.63;84.79
62946;BME280;52164;52.212;-1.010;2023-02-16T08:06:56;100826.04;;;7.64;84.74
62946;BME280;52164;52.212;-1.010;2023-02-16T08:09:22;100829.09;;;7.66;84.67
62946;BME280;52164;52.212;-1.010;2023-02-16T08:11:47;100832.13;;;7.66;84.83
62946;BME280;52164;52.212;-1.010;2023-02-16T08:14:13;100824.66;;;7.68;85.15
62946;BME280;52164;52.212;-1.010;2023-02-16T08:16:38;100820.09;;;7.70;84.85
62946;BME280;52164;52.212;-1.010;2023-02-16T08:19:04;100824.92;;;7.72;85.03
62946;BME280;52164;52.212;-1.010;2023-02-16T08:21:30;100830.13;;;7.75;85.01
62946;BME280;52164;52.212;-1.010;2023-02-16T08:23:57;100827.69;;;7.79;85.11
62946;BME280;52164;52.212;-1.010;2023-02-16T08:26:24;100821.88;;;7.82;85.15
62946;BME280;52164;52.212;-1.010;2023-02-16T08:28:50;100828.86;;;7.85;85.25
62946;BME280;52164;52.212;-1.010;2023-02-16T08:31:17;100825.74;;;7.89;85.04
62946;BME280;52164;52.212;-1.010;2023-02-16T08:33:44;100829.21;;;7.96;85.05
62946;BME280;52164;52.212;-1.010;2023-02-16T08:36:17;100822.76;;;8.03;85.07
62946;BME280;52164;52.212;-1.010;2023-02-16T08:38:43;100823.02;;;8.09;84.86
62946;BME280;52164;52.212;-1.010;2023-02-16T08:41:09;100830.02;;;8.12;84.97
62946;BME280;52164;52.212;-1.010;2023-02-16T08:43:37;100823.27;;;8.15;84.93
62946;BME280;52164;52.212;-1.010;2023-02-16T08:46:02;100828.86;;;8.19;85.00
62946;BME280;52164;52.212;-1.010;2023-02-16T08:48:29;100830.83;;;8.20;84.96
62946;BME280;52164;52.212;-1.010;2023-02-16T08:50:59;100831.58;;;8.22;84.98
62946;BME280;52164;52.212;-1.010;2023-02-16T08:53:24;100833.19;;;8.23;84.85
62946;BME280;52164;52.212;-1.010;2023-02-16T08:55:53;100835.69;;;8.24;85.08
62946;BME280;52164;52.212;-1.010;2023-02-16T08:58:19;100844.97;;;8.27;85.08
62946;BME280;52164;52.212;-1.010;2023-02-16T09:00:45;100842.19;;;8.31;85.21
62946;BME280;52164;52.212;-1.010;2023-02-16T09:03:11;100839.59;;;8.36;85.23
62946;BME280;52164;52.212;-1.010;2023-02-16T09:05:37;100843.40;;;8.41;84.97
62946;BME280;52164;52.212;-1.010;2023-02-16T09:08:02;100843.69;;;8.47;84.90
62946;BME280;52164;52.212;-1.010;2023-02-16T09:10:28;100851.41;;;8.52;84.57
62946;BME280;52164;52.212;-1.010;2023-02-16T09:12:54;100851.80;;;8.54;84.94
62946;BME280;52164;52.212;-1.010;2023-02-16T09:15:19;100848.28;;;8.57;84.78
62946;BME280;52164;52.212;-1.010;2023-02-16T09:17:45;100845.50;;;8.62;84.72
62946;BME280;52164;52.212;-1.010;2023-02-16T09:20:10;100840.90;;;8.65;84.69
62946;BME280;52164;52.212;-1.010;2023-02-16T09:22:36;100840.23;;;8.69;84.95
62946;BME280;52164;52.212;-1.010;2023-02-16T09:25:02;100837.62;;;8.72;84.74
62946;BME280;52164;52.212;-1.010;2023-02-16T09:27:27;100840.70;;;8.76;84.61
62946;BME280;52164;52.212;-1.010;2023-02-16T09:29:52;100841.83;;;8.81;84.61
62946;BME280;52164;52.212;-1.010;2023-02-16T09:32:18;100834.76;;;8.86;84.67
62946;BME280;52164;52.212;-1.010;2023-02-16T09:34:43;100841.40;;;8.90;84.54
62946;BME280;52164;52.212;-1.010;2023-02-16T09:37:10;100852.14;;;8.96;84.70
62946;BME280;52164;52.212;-1.010;2023-02-16T09:39:35;100854.70;;;9.01;84.61
62946;BME280;52164;52.212;-1.010;2023-02-16T09:44:40;100858.71;;;9.08;84.61
62946;BME280;52164;52.212;-1.010;2023-02-16T09:47:27;100853.58;;;9.11;84.60
62946;BME280;52164;52.212;-1.010;2023-02-16T09:49:55;100844.73;;;9.16;84.55
62946;BME280;52164;52.212;-1.010;2023-02-16T09:54:52;100835.23;;;9.28;84.54
62946;BME280;52164;52.212;-1.010;2023-02-16T09:57:28;100840.48;;;9.36;84.46
62946;BME280;52164;52.212;-1.010;2023-02-16T10:03:00;100841.13;;;9.47;84.29
62946;BME280;52164;52.212;-1.010;2023-02-16T10:05:12;100846.17;;;9.54;84.34
62946;BME280;52164;52.212;-1.010;2023-02-16T10:08:13;100854.81;;;9.61;84.12
62946;BME280;52164;52.212;-1.010;2023-02-16T10:10:28;100850.39;;;9.66;84.26
62946;BME280;52164;52.212;-1.010;2023-02-16T10:14:04;100848.44;;;9.66;84.16
62946;BME280;52164;52.212;-1.010;2023-02-16T10:15:43;100846.48;;;9.65;84.42
62946;BME280;52164;52.212;-1.010;2023-02-16T10:18:42;100847.17;;;9.64;84.25
62946;BME280;52164;52.212;-1.010;2023-02-16T10:20:54;100850.73;;;9.65;84.58
62946;BME280;52164;52.212;-1.010;2023-02-16T10:23:27;100850.95;;;9.69;84.49
62946;BME280;52164;52.212;-1.010;2023-02-16T10:25:56;100861.90;;;9.76;84.36
62946;BME280;52164;52.212;-1.010;2023-02-16T10:28:35;100860.68;;;9.81;84.51
62946;BME280;52164;52.212;-1.010;2023-02-16T10:31:03;100856.42;;;9.84;84.32
62946;BME280;52164;52.212;-1.010;2023-02-16T10:35:45;100862.54;;;9.89;84.58
62946;BME280;52164;52.212;-1.010;2023-02-16T10:36:25;100859.73;;;9.96;84.45
62946;BME280;52164;52.212;-1.010;2023-02-16T10:38:57;100853.55;;;10.02;84.65
62946;BME280;52164;52.212;-1.010;2023-02-16T10:41:34;100860.02;;;10.10;84.69
62946;BME280;52164;52.212;-1.010;2023-02-16T10:44:04;100864.20;;;10.18;84.60
62946;BME280;52164;52.212;-1.010;2023-02-16T10:46:38;100860.48;;;10.25;84.50
62946;BME280;52164;52.212;-1.010;2023-02-16T10:49:07;100856.41;;;10.29;84.59
62946;BME280;52164;52.212;-1.010;2023-02-16T10:51:35;100850.05;;;10.33;84.42
62946;BME280;52164;52.212;-1.010;2023-02-16T10:57:32;100850.48;;;10.44;83.99
62946;BME280;52164;52.212;-1.010;2023-02-16T10:59:18;100846.25;;;10.53;84.16
62946;BME280;52164;52.212;-1.010;2023-02-16T11:01:45;100845.77;;;10.64;84.04
62946;BME280;52164;52.212;-1.010;2023-02-16T11:04:29;100850.48;;;10.76;83.93
62946;BME280;52164;52.212;-1.010;2023-02-16T11:07:27;100851.95;;;10.89;83.93
62946;BME280;52164;52.212;-1.010;2023-02-16T11:09:40;100850.39;;;11.02;83.61
62946;BME280;52164;52.212;-1.010;2023-02-16T11:12:12;100849.55;;;11.18;83.48
62946;BME280;52164;52.212;-1.010;2023-02-16T11:14:39;100846.90;;;11.28;83.26
62946;BME280;52164;52.212;-1.010;2023-02-16T11:17:06;100844.59;;;11.34;83.18
62946;BME280;52164;52.212;-1.010;2023-02-16T11:19:32;100846.75;;;11.48;82.97
62946;BME280;52164;52.212;-1.010;2023-02-16T11:21:58;100846.25;;;11.67;82.46
62946;BME280;52164;52.212;-1.010;2023-02-16T11:24:32;100847.14;;;11.77;82.15
62946;BME280;52164;52.212;-1.010;2023-02-16T11:27:15;100843.58;;;11.87;81.73
62946;BME280;52164;52.212;-1.010;2023-02-16T11:29:42;100842.14;;;11.79;81.63
62946;BME280;52164;52.212;-1.010;2023-02-16T11:32:08;100835.17;;;11.78;81.84
62946;BME280;52164;52.212;-1.010;2023-02-16T11:34:35;100835.17;;;11.83;81.63
62946;BME280;52164;52.212;-1.010;2023-02-16T11:37:02;100831.23;;;11.85;81.48
62946;BME280;52164;52.212;-1.010;2023-02-16T11:39:31;100822.65;;;11.83;81.45
62946;BME280;52164;52.212;-1.010;2023-02-16T11:41:59;100818.19;;;11.80;81.48
62946;BME280;52164;52.212;-1.010;2023-02-16T11:46:54;100800.11;;;11.88;81.32
62946;BME280;52164;52.212;-1.010;2023-02-16T11:51:47;100800.48;;;12.07;81.09
62946;BME280;52164;52.212;-1.010;2023-02-16T11:54:15;100803.15;;;12.17;80.79
62946;BME280;52164;52.212;-1.010;2023-02-16T11:56:41;100803.51;;;12.23;80.69
62946;BME280;52164;52.212;-1.010;2023-02-16T11:59:15;100803.11;;;12.31;80.79
62946;BME280;52164;52.212;-1.010;2023-02-16T12:04:21;100804.73;;;12.28;80.43
62946;BME280;52164;52.212;-1.010;2023-02-16T12:08:03;100803.14;;;12.22;80.49
62946;BME280;52164;52.212;-1.010;2023-02-16T12:14:22;100810.11;;;12.22;80.78
62946;BME280;52164;52.212;-1.010;2023-02-16T12:14:58;100813.88;;;12.22;80.72
62946;BME280;52164;52.212;-1.010;2023-02-16T12:17:41;100812.64;;;12.22;80.72
62946;BME280;52164;52.212;-1.010;2023-02-16T12:20:15;100813.88;;;12.27;80.72
62946;BME280;52164;52.212;-1.010;2023-02-16T12:22:46;100818.86;;;12.34;80.53
62946;BME280;52164;52.212;-1.010;2023-02-16T12:25:47;100818.86;;;12.38;80.38
62946;BME280;52164;52.212;-1.010;2023-02-16T12:28:01;100815.09;;;12.41;80.31
62946;BME280;52164;52.212;-1.010;2023-02-16T12:30:34;100812.58;;;12.42;80.06
62946;BME280;52164;52.212;-1.010;2023-02-16T12:36:20;100817.57;;;12.48;80.15
62946;BME280;52164;52.212;-1.010;2023-02-16T12:38:34;100820.43;;;12.47;80.00
62946;BME280;52164;52.212;-1.010;2023-02-16T12:43:34;100815.25;;;12.48;79.93
62946;BME280;52164;52.212;-1.010;2023-02-16T12:46:03;100813.98;;;12.51;79.72
62946;BME280;52164;52.212;-1.010;2023-02-16T12:48:36;100824.73;;;12.52;79.71
62946;BME280;52164;52.212;-1.010;2023-02-16T12:51:07;100826.17;;;12.47;79.78
62946;BME280;52164;52.212;-1.010;2023-02-16T12:53:41;100826.00;;;12.43;79.97
62946;BME280;52164;52.212;-1.010;2023-02-16T12:56:08;100826.36;;;12.40;79.73
62946;BME280;52164;52.212;-1.010;2023-02-16T12:58:38;100825.65;;;12.38;79.80
62946;BME280;52164;52.212;-1.010;2023-02-16T13:01:09;100822.08;;;12.37;79.84
62946;BME280;52164;52.212;-1.010;2023-02-16T13:03:43;100818.50;;;12.39;79.67
62946;BME280;52164;52.212;-1.010;2023-02-16T13:07:17;100816.34;;;12.34;79.58
62946;BME280;52164;52.212;-1.010;2023-02-16T13:08:59;100822.08;;;12.30;79.74
62946;BME280;52164;52.212;-1.010;2023-02-16T13:12:33;100827.82;;;12.29;79.70
62946;BME280;52164;52.212;-1.010;2023-02-16T13:14:13;100825.30;;;12.34;79.48
62946;BME280;52164;52.212;-1.010;2023-02-16T13:16:43;100829.95;;;12.39;79.20
62946;BME280;52164;52.212;-1.010;2023-02-16T13:19:11;100824.39;;;12.39;79.39
62946;BME280;52164;52.212;-1.010;2023-02-16T13:22:05;100824.94;;;12.40;79.44
62946;BME280;52164;52.212;-1.010;2023-02-16T13:24:42;100823.34;;;12.37;79.49
62946;BME280;52164;52.212;-1.010;2023-02-16T13:32:23;100811.32;;;12.41;79.57
62946;BME280;52164;52.212;-1.010;2023-02-16T13:34:59;100812.39;;;12.44;79.42
62946;BME280;52164;52.212;-1.010;2023-02-16T13:37:38;100811.86;;;12.44;79.54
62946;BME280;52164;52.212;-1.010;2023-02-16T13:40:14;100812.94;;;12.41;79.45
62946;BME280;52164;52.212;-1.010;2023-02-16T13:44:54;100809.89;;;12.41;79.70
62946;BME280;52164;52.212;-1.010;2023-02-16T13:45:29;100801.30;;;12.42;79.54